FYWH/WDH METAR and TAF weather

Enter ICAO airport designator
Station Type Date Time Source
FYWH METAR 2020/02/19 11:00 UTC NOAA

FYWH 191100Z 36007KT 300V070 9999 SCT025 FEW030CB 25/17 Q1022 NOSIG


Station Type Date Time Source
FYWH Decoded METAR 2020/02/19 11:00 UTC NOAA

J. G. Strijdom, Namibia (FYWH) 22-29S 017-28E 1700M
Feb 19, 2020 - 06:00 AM EST / 2020.02.19 1100 UTC
Wind: from the N (360 degrees) at 8 MPH (7 KT) (direction variable):0
Visibility: greater than 7 mile(s):0
Sky conditions: partly cloudy
Weather: Cumulonimbus clouds observed
Temperature: 77 F (25 C)
Dew Point: 62 F (17 C)
Relative Humidity: 61%
Pressure (altimeter): 30.18 in. Hg (1022 hPa)
ob: FYWH 191100Z 36007KT 300V070 9999 SCT025 FEW030CB 25/17 Q1022 NOSIG
cycle: 11

Station Type Date Time Source
FYWH TAF 2020/02/19 12:12 UTC NOAA

TAF FYWH 191000Z 1912/2012 33009KT 9999 SCT010 FEW030CB SCT035
TEMPO 1912/1918 9000 TSRA SCT035CB
TEMPO 1919/2002 24007KT 9999 -SHRA FEW035CB
BECMG 2004/2006 NSW NSC
BECMG 2009/2011 30006KT SCT050

Example: see airport list